sensor_id;sensor_type;location;lat;lon;timestamp;P1;durP1;ratioP1;P2;durP2;ratioP2
70169;SDS011;57543;45.442;9.212;2023-12-20T00:01:46;48.17;;;26.08;;
70169;SDS011;57543;45.442;9.212;2023-12-20T00:04:49;45.67;;;25.58;;
70169;SDS011;57543;45.442;9.212;2023-12-20T00:07:53;47.97;;;26.48;;
70169;SDS011;57543;45.442;9.212;2023-12-20T00:10:57;51.80;;;27.23;;
70169;SDS011;57543;45.442;9.212;2023-12-20T00:14:03;47.30;;;26.13;;
70169;SDS011;57543;45.442;9.212;2023-12-20T00:17:06;49.95;;;26.55;;
70169;SDS011;57543;45.442;9.212;2023-12-20T00:20:12;44.65;;;24.95;;
70169;SDS011;57543;45.442;9.212;2023-12-20T00:23:18;46.90;;;25.65;;
70169;SDS011;57543;45.442;9.212;2023-12-20T00:26:25;48.30;;;27.38;;
70169;SDS011;57543;45.442;9.212;2023-12-20T00:29:31;47.60;;;26.30;;
70169;SDS011;57543;45.442;9.212;2023-12-20T00:32:35;52.17;;;28.08;;
70169;SDS011;57543;45.442;9.212;2023-12-20T00:35:39;47.65;;;29.08;;
70169;SDS011;57543;45.442;9.212;2023-12-20T00:38:45;47.78;;;28.33;;
70169;SDS011;57543;45.442;9.212;2023-12-20T00:41:51;48.85;;;28.20;;
70169;SDS011;57543;45.442;9.212;2023-12-20T00:44:55;44.80;;;27.00;;
70169;SDS011;57543;45.442;9.212;2023-12-20T00:47:58;46.85;;;26.95;;
70169;SDS011;57543;45.442;9.212;2023-12-20T00:51:02;49.22;;;26.92;;
70169;SDS011;57543;45.442;9.212;2023-12-20T00:54:06;49.53;;;27.65;;
70169;SDS011;57543;45.442;9.212;2023-12-20T00:57:13;47.03;;;27.65;;
70169;SDS011;57543;45.442;9.212;2023-12-20T01:00:17;48.47;;;27.23;;
70169;SDS011;57543;45.442;9.212;2023-12-20T01:03:21;47.40;;;26.60;;
70169;SDS011;57543;45.442;9.212;2023-12-20T01:06:25;49.75;;;26.48;;
70169;SDS011;57543;45.442;9.212;2023-12-20T01:09:28;47.80;;;26.45;;
70169;SDS011;57543;45.442;9.212;2023-12-20T01:12:32;45.03;;;27.75;;
70169;SDS011;57543;45.442;9.212;2023-12-20T01:15:40;44.77;;;26.70;;
70169;SDS011;57543;45.442;9.212;2023-12-20T01:18:46;51.13;;;27.95;;
70169;SDS011;57543;45.442;9.212;2023-12-20T01:21:49;44.53;;;27.13;;
70169;SDS011;57543;45.442;9.212;2023-12-20T01:24:58;46.65;;;26.13;;
70169;SDS011;57543;45.442;9.212;2023-12-20T01:28:01;49.78;;;26.40;;
70169;SDS011;57543;45.442;9.212;2023-12-20T01:31:06;51.10;;;27.97;;
70169;SDS011;57543;45.442;9.212;2023-12-20T01:34:10;51.08;;;27.13;;
70169;SDS011;57543;45.442;9.212;2023-12-20T01:37:15;50.85;;;27.00;;
70169;SDS011;57543;45.442;9.212;2023-12-20T01:40:19;47.40;;;25.85;;
70169;SDS011;57543;45.442;9.212;2023-12-20T01:43:22;47.22;;;25.50;;
70169;SDS011;57543;45.442;9.212;2023-12-20T01:46:25;44.80;;;24.90;;
70169;SDS011;57543;45.442;9.212;2023-12-20T01:49:30;48.80;;;26.25;;
70169;SDS011;57543;45.442;9.212;2023-12-20T01:52:34;50.65;;;27.15;;
70169;SDS011;57543;45.442;9.212;2023-12-20T01:55:38;44.70;;;26.15;;
70169;SDS011;57543;45.442;9.212;2023-12-20T01:58:46;48.13;;;26.75;;
70169;SDS011;57543;45.442;9.212;2023-12-20T02:01:52;50.13;;;26.70;;
70169;SDS011;57543;45.442;9.212;2023-12-20T02:04:55;45.60;;;25.92;;
70169;SDS011;57543;45.442;9.212;2023-12-20T02:08:02;45.45;;;26.40;;
70169;SDS011;57543;45.442;9.212;2023-12-20T02:11:09;44.03;;;25.23;;
70169;SDS011;57543;45.442;9.212;2023-12-20T02:14:19;44.70;;;26.10;;
70169;SDS011;57543;45.442;9.212;2023-12-20T02:17:23;44.57;;;26.93;;
70169;SDS011;57543;45.442;9.212;2023-12-20T02:20:33;49.78;;;25.80;;
70169;SDS011;57543;45.442;9.212;2023-12-20T02:23:36;44.90;;;26.00;;
70169;SDS011;57543;45.442;9.212;2023-12-20T02:26:39;42.78;;;24.58;;
70169;SDS011;57543;45.442;9.212;2023-12-20T02:29:44;43.15;;;25.05;;
70169;SDS011;57543;45.442;9.212;2023-12-20T02:32:50;45.23;;;24.83;;
70169;SDS011;57543;45.442;9.212;2023-12-20T02:35:55;43.28;;;25.52;;
70169;SDS011;57543;45.442;9.212;2023-12-20T02:38:59;44.40;;;25.60;;
70169;SDS011;57543;45.442;9.212;2023-12-20T02:42:03;46.10;;;25.42;;
70169;SDS011;57543;45.442;9.212;2023-12-20T02:45:07;48.75;;;27.27;;
70169;SDS011;57543;45.442;9.212;2023-12-20T02:48:13;45.43;;;25.43;;
70169;SDS011;57543;45.442;9.212;2023-12-20T02:51:17;49.38;;;26.77;;
70169;SDS011;57543;45.442;9.212;2023-12-20T02:54:20;47.97;;;26.48;;
70169;SDS011;57543;45.442;9.212;2023-12-20T02:57:24;46.28;;;26.75;;
70169;SDS011;57543;45.442;9.212;2023-12-20T03:00:27;44.85;;;26.02;;
70169;SDS011;57543;45.442;9.212;2023-12-20T03:03:31;47.57;;;26.27;;
70169;SDS011;57543;45.442;9.212;2023-12-20T03:06:35;44.80;;;25.33;;
70169;SDS011;57543;45.442;9.212;2023-12-20T03:09:39;43.22;;;25.08;;
70169;SDS011;57543;45.442;9.212;2023-12-20T03:12:44;43.95;;;25.75;;
70169;SDS011;57543;45.442;9.212;2023-12-20T03:15:50;45.40;;;26.13;;
70169;SDS011;57543;45.442;9.212;2023-12-20T03:18:53;42.73;;;25.50;;
70169;SDS011;57543;45.442;9.212;2023-12-20T03:22:00;44.42;;;26.33;;
70169;SDS011;57543;45.442;9.212;2023-12-20T03:25:05;44.35;;;25.83;;
70169;SDS011;57543;45.442;9.212;2023-12-20T03:28:08;47.08;;;25.52;;
70169;SDS011;57543;45.442;9.212;2023-12-20T03:31:12;47.25;;;27.33;;
70169;SDS011;57543;45.442;9.212;2023-12-20T03:34:16;46.83;;;25.33;;
70169;SDS011;57543;45.442;9.212;2023-12-20T03:37:23;47.22;;;26.10;;
70169;SDS011;57543;45.442;9.212;2023-12-20T03:40:29;49.45;;;26.83;;
70169;SDS011;57543;45.442;9.212;2023-12-20T03:43:33;47.60;;;28.25;;
70169;SDS011;57543;45.442;9.212;2023-12-20T03:46:40;49.88;;;27.75;;
70169;SDS011;57543;45.442;9.212;2023-12-20T03:49:44;46.57;;;26.43;;
70169;SDS011;57543;45.442;9.212;2023-12-20T03:52:47;49.47;;;26.70;;
70169;SDS011;57543;45.442;9.212;2023-12-20T03:55:51;43.38;;;25.73;;
70169;SDS011;57543;45.442;9.212;2023-12-20T03:58:57;44.70;;;25.30;;
70169;SDS011;57543;45.442;9.212;2023-12-20T04:02:01;46.30;;;26.08;;
70169;SDS011;57543;45.442;9.212;2023-12-20T04:05:06;44.60;;;25.90;;
70169;SDS011;57543;45.442;9.212;2023-12-20T04:08:10;47.65;;;26.73;;
70169;SDS011;57543;45.442;9.212;2023-12-20T04:11:14;49.35;;;26.90;;
70169;SDS011;57543;45.442;9.212;2023-12-20T04:14:21;49.38;;;25.48;;
70169;SDS011;57543;45.442;9.212;2023-12-20T04:17:24;45.60;;;25.63;;
70169;SDS011;57543;45.442;9.212;2023-12-20T04:20:28;45.23;;;26.00;;
70169;SDS011;57543;45.442;9.212;2023-12-20T04:23:32;46.13;;;26.27;;
70169;SDS011;57543;45.442;9.212;2023-12-20T04:26:36;45.85;;;26.60;;
70169;SDS011;57543;45.442;9.212;2023-12-20T04:29:39;45.78;;;25.60;;
70169;SDS011;57543;45.442;9.212;2023-12-20T04:32:45;43.63;;;25.35;;
70169;SDS011;57543;45.442;9.212;2023-12-20T04:35:48;46.07;;;25.10;;
70169;SDS011;57543;45.442;9.212;2023-12-20T04:38:53;47.10;;;25.27;;
70169;SDS011;57543;45.442;9.212;2023-12-20T04:41:56;47.63;;;25.75;;
70169;SDS011;57543;45.442;9.212;2023-12-20T04:45:00;43.38;;;25.35;;
70169;SDS011;57543;45.442;9.212;2023-12-20T04:48:04;45.50;;;25.00;;
70169;SDS011;57543;45.442;9.212;2023-12-20T04:51:13;51.83;;;26.80;;
70169;SDS011;57543;45.442;9.212;2023-12-20T04:54:17;51.22;;;26.48;;
70169;SDS011;57543;45.442;9.212;2023-12-20T04:57:21;46.22;;;25.90;;
70169;SDS011;57543;45.442;9.212;2023-12-20T05:00:25;43.40;;;24.77;;
70169;SDS011;57543;45.442;9.212;2023-12-20T05:03:29;47.97;;;26.20;;
70169;SDS011;57543;45.442;9.212;2023-12-20T05:06:35;44.07;;;25.00;;
70169;SDS011;57543;45.442;9.212;2023-12-20T05:09:38;46.72;;;26.15;;
70169;SDS011;57543;45.442;9.212;2023-12-20T05:12:44;44.67;;;25.88;;
70169;SDS011;57543;45.442;9.212;2023-12-20T05:15:51;45.33;;;25.95;;
70169;SDS011;57543;45.442;9.212;2023-12-20T05:18:57;44.83;;;26.00;;
70169;SDS011;57543;45.442;9.212;2023-12-20T05:22:02;42.40;;;24.77;;
70169;SDS011;57543;45.442;9.212;2023-12-20T05:25:09;45.58;;;25.70;;
70169;SDS011;57543;45.442;9.212;2023-12-20T05:28:17;46.42;;;25.77;;
70169;SDS011;57543;45.442;9.212;2023-12-20T05:31:21;46.47;;;25.88;;
70169;SDS011;57543;45.442;9.212;2023-12-20T05:34:27;43.08;;;26.13;;
70169;SDS011;57543;45.442;9.212;2023-12-20T05:37:31;44.47;;;26.17;;
70169;SDS011;57543;45.442;9.212;2023-12-20T05:40:36;48.53;;;27.73;;
70169;SDS011;57543;45.442;9.212;2023-12-20T05:43:40;46.50;;;26.42;;
70169;SDS011;57543;45.442;9.212;2023-12-20T05:46:46;46.67;;;26.73;;
70169;SDS011;57543;45.442;9.212;2023-12-20T05:49:50;49.65;;;26.20;;
70169;SDS011;57543;45.442;9.212;2023-12-20T05:52:53;45.80;;;26.87;;
70169;SDS011;57543;45.442;9.212;2023-12-20T05:55:57;43.92;;;25.10;;
70169;SDS011;57543;45.442;9.212;2023-12-20T05:59:01;46.03;;;25.83;;
70169;SDS011;57543;45.442;9.212;2023-12-20T06:02:07;45.63;;;25.65;;
70169;SDS011;57543;45.442;9.212;2023-12-20T06:05:13;41.70;;;24.60;;
70169;SDS011;57543;45.442;9.212;2023-12-20T06:08:20;45.20;;;25.73;;
70169;SDS011;57543;45.442;9.212;2023-12-20T06:11:24;44.95;;;24.70;;
70169;SDS011;57543;45.442;9.212;2023-12-20T06:14:29;42.53;;;26.02;;
70169;SDS011;57543;45.442;9.212;2023-12-20T06:17:37;45.00;;;25.40;;
70169;SDS011;57543;45.442;9.212;2023-12-20T06:20:40;47.72;;;26.02;;
70169;SDS011;57543;45.442;9.212;2023-12-20T06:23:44;47.10;;;26.23;;
70169;SDS011;57543;45.442;9.212;2023-12-20T06:26:50;45.58;;;25.48;;
70169;SDS011;57543;45.442;9.212;2023-12-20T06:29:53;48.30;;;26.88;;
70169;SDS011;57543;45.442;9.212;2023-12-20T06:33:02;47.92;;;25.67;;
70169;SDS011;57543;45.442;9.212;2023-12-20T06:36:13;50.20;;;28.00;;
70169;SDS011;57543;45.442;9.212;2023-12-20T06:39:20;48.43;;;28.47;;
70169;SDS011;57543;45.442;9.212;2023-12-20T06:42:25;52.55;;;29.45;;
70169;SDS011;57543;45.442;9.212;2023-12-20T06:45:29;50.97;;;29.92;;
70169;SDS011;57543;45.442;9.212;2023-12-20T06:48:35;51.05;;;30.55;;
70169;SDS011;57543;45.442;9.212;2023-12-20T06:51:38;52.55;;;30.27;;
70169;SDS011;57543;45.442;9.212;2023-12-20T06:54:42;48.27;;;28.07;;
70169;SDS011;57543;45.442;9.212;2023-12-20T06:57:45;49.60;;;30.67;;
70169;SDS011;57543;45.442;9.212;2023-12-20T07:00:50;50.80;;;29.27;;
70169;SDS011;57543;45.442;9.212;2023-12-20T07:03:54;55.83;;;30.85;;
70169;SDS011;57543;45.442;9.212;2023-12-20T07:06:58;52.50;;;30.63;;
70169;SDS011;57543;45.442;9.212;2023-12-20T07:10:03;54.53;;;30.93;;
70169;SDS011;57543;45.442;9.212;2023-12-20T07:13:07;53.50;;;31.58;;
70169;SDS011;57543;45.442;9.212;2023-12-20T07:16:11;55.28;;;32.17;;
70169;SDS011;57543;45.442;9.212;2023-12-20T07:19:14;74.30;;;44.17;;
70169;SDS011;57543;45.442;9.212;2023-12-20T07:22:18;88.35;;;50.55;;
70169;SDS011;57543;45.442;9.212;2023-12-20T07:25:22;60.37;;;36.40;;
70169;SDS011;57543;45.442;9.212;2023-12-20T07:28:25;60.35;;;35.13;;
70169;SDS011;57543;45.442;9.212;2023-12-20T07:31:29;62.78;;;36.63;;
70169;SDS011;57543;45.442;9.212;2023-12-20T07:34:33;55.75;;;36.05;;
70169;SDS011;57543;45.442;9.212;2023-12-20T07:37:36;57.05;;;33.08;;
70169;SDS011;57543;45.442;9.212;2023-12-20T07:40:40;53.53;;;32.60;;
70169;SDS011;57543;45.442;9.212;2023-12-20T07:43:44;51.63;;;31.40;;
70169;SDS011;57543;45.442;9.212;2023-12-20T07:46:49;54.05;;;31.25;;
70169;SDS011;57543;45.442;9.212;2023-12-20T07:49:53;51.65;;;30.58;;
70169;SDS011;57543;45.442;9.212;2023-12-20T07:52:57;56.10;;;31.48;;
70169;SDS011;57543;45.442;9.212;2023-12-20T07:56:12;62.00;;;34.93;;
70169;SDS011;57543;45.442;9.212;2023-12-20T07:59:17;56.33;;;32.53;;
70169;SDS011;57543;45.442;9.212;2023-12-20T08:02:21;57.58;;;33.60;;
70169;SDS011;57543;45.442;9.212;2023-12-20T08:05:24;60.40;;;33.25;;
70169;SDS011;57543;45.442;9.212;2023-12-20T08:08:28;53.15;;;31.92;;
70169;SDS011;57543;45.442;9.212;2023-12-20T08:11:34;57.43;;;32.93;;
70169;SDS011;57543;45.442;9.212;2023-12-20T08:14:41;57.50;;;34.15;;
70169;SDS011;57543;45.442;9.212;2023-12-20T08:17:44;55.85;;;33.65;;
70169;SDS011;57543;45.442;9.212;2023-12-20T08:20:48;55.47;;;31.95;;
70169;SDS011;57543;45.442;9.212;2023-12-20T08:23:52;57.33;;;33.83;;
70169;SDS011;57543;45.442;9.212;2023-12-20T08:26:56;54.63;;;34.23;;
70169;SDS011;57543;45.442;9.212;2023-12-20T08:30:00;54.70;;;33.47;;
70169;SDS011;57543;45.442;9.212;2023-12-20T08:33:06;58.92;;;33.28;;
70169;SDS011;57543;45.442;9.212;2023-12-20T08:36:14;55.92;;;33.58;;
70169;SDS011;57543;45.442;9.212;2023-12-20T08:39:18;59.92;;;34.97;;
70169;SDS011;57543;45.442;9.212;2023-12-20T08:42:21;53.97;;;32.47;;
70169;SDS011;57543;45.442;9.212;2023-12-20T08:45:25;61.17;;;33.60;;
70169;SDS011;57543;45.442;9.212;2023-12-20T08:48:29;52.63;;;31.25;;
70169;SDS011;57543;45.442;9.212;2023-12-20T08:51:33;56.10;;;33.30;;
70169;SDS011;57543;45.442;9.212;2023-12-20T08:54:37;51.45;;;30.08;;
70169;SDS011;57543;45.442;9.212;2023-12-20T08:57:40;58.57;;;31.53;;
70169;SDS011;57543;45.442;9.212;2023-12-20T09:00:44;54.85;;;32.15;;
70169;SDS011;57543;45.442;9.212;2023-12-20T09:03:53;53.58;;;31.15;;
70169;SDS011;57543;45.442;9.212;2023-12-20T09:06:59;58.50;;;33.08;;
70169;SDS011;57543;45.442;9.212;2023-12-20T09:10:04;53.13;;;31.17;;
70169;SDS011;57543;45.442;9.212;2023-12-20T09:13:08;50.93;;;29.77;;
70169;SDS011;57543;45.442;9.212;2023-12-20T09:16:11;54.47;;;31.38;;
70169;SDS011;57543;45.442;9.212;2023-12-20T09:19:20;55.67;;;32.00;;
70169;SDS011;57543;45.442;9.212;2023-12-20T09:22:27;55.15;;;31.10;;
70169;SDS011;57543;45.442;9.212;2023-12-20T09:25:33;53.70;;;32.80;;
70169;SDS011;57543;45.442;9.212;2023-12-20T09:28:36;49.17;;;31.23;;
70169;SDS011;57543;45.442;9.212;2023-12-20T09:31:43;55.38;;;31.10;;
70169;SDS011;57543;45.442;9.212;2023-12-20T09:34:48;49.40;;;29.83;;
70169;SDS011;57543;45.442;9.212;2023-12-20T09:37:55;52.17;;;30.65;;
70169;SDS011;57543;45.442;9.212;2023-12-20T09:41:11;49.85;;;30.13;;
70169;SDS011;57543;45.442;9.212;2023-12-20T09:44:18;54.97;;;30.53;;
70169;SDS011;57543;45.442;9.212;2023-12-20T09:47:22;54.90;;;31.85;;
70169;SDS011;57543;45.442;9.212;2023-12-20T09:50:27;54.30;;;32.47;;
70169;SDS011;57543;45.442;9.212;2023-12-20T09:53:34;54.88;;;30.55;;
70169;SDS011;57543;45.442;9.212;2023-12-20T09:56:39;49.25;;;30.40;;
70169;SDS011;57543;45.442;9.212;2023-12-20T09:59:43;53.60;;;30.97;;
70169;SDS011;57543;45.442;9.212;2023-12-20T10:06:30;56.67;;;32.15;;
70169;SDS011;57543;45.442;9.212;2023-12-20T10:09:34;58.33;;;33.35;;
70169;SDS011;57543;45.442;9.212;2023-12-20T10:12:38;52.97;;;33.15;;
70169;SDS011;57543;45.442;9.212;2023-12-20T10:15:41;54.87;;;32.33;;
70169;SDS011;57543;45.442;9.212;2023-12-20T10:18:47;53.90;;;32.78;;
70169;SDS011;57543;45.442;9.212;2023-12-20T10:21:50;53.03;;;32.75;;
70169;SDS011;57543;45.442;9.212;2023-12-20T10:24:56;57.85;;;33.30;;
70169;SDS011;57543;45.442;9.212;2023-12-20T10:28:10;53.30;;;31.67;;
70169;SDS011;57543;45.442;9.212;2023-12-20T10:31:29;55.15;;;32.30;;
70169;SDS011;57543;45.442;9.212;2023-12-20T10:34:34;58.92;;;33.55;;
70169;SDS011;57543;45.442;9.212;2023-12-20T10:37:38;56.10;;;33.55;;
70169;SDS011;57543;45.442;9.212;2023-12-20T10:40:42;59.80;;;33.30;;
70169;SDS011;57543;45.442;9.212;2023-12-20T10:43:48;55.78;;;32.67;;
70169;SDS011;57543;45.442;9.212;2023-12-20T10:46:53;59.73;;;34.73;;
70169;SDS011;57543;45.442;9.212;2023-12-20T10:50:01;55.95;;;33.70;;
70169;SDS011;57543;45.442;9.212;2023-12-20T10:53:08;54.00;;;32.90;;
70169;SDS011;57543;45.442;9.212;2023-12-20T10:56:12;55.40;;;32.47;;
70169;SDS011;57543;45.442;9.212;2023-12-20T10:59:19;55.40;;;33.38;;
70169;SDS011;57543;45.442;9.212;2023-12-20T11:02:23;51.57;;;31.97;;
70169;SDS011;57543;45.442;9.212;2023-12-20T11:05:32;59.30;;;33.17;;
70169;SDS011;57543;45.442;9.212;2023-12-20T11:08:47;50.53;;;32.60;;
70169;SDS011;57543;45.442;9.212;2023-12-20T11:15:19;61.83;;;35.15;;
70169;SDS011;57543;45.442;9.212;2023-12-20T11:18:30;55.50;;;33.13;;
70169;SDS011;57543;45.442;9.212;2023-12-20T11:21:34;54.08;;;33.22;;
70169;SDS011;57543;45.442;9.212;2023-12-20T11:24:44;57.75;;;35.03;;
70169;SDS011;57543;45.442;9.212;2023-12-20T11:31:15;66.97;;;38.58;;
70169;SDS011;57543;45.442;9.212;2023-12-20T11:34:32;58.90;;;33.90;;
70169;SDS011;57543;45.442;9.212;2023-12-20T11:37:37;54.65;;;33.22;;
70169;SDS011;57543;45.442;9.212;2023-12-20T11:40:45;52.03;;;31.60;;
70169;SDS011;57543;45.442;9.212;2023-12-20T11:43:59;55.55;;;32.42;;
70169;SDS011;57543;45.442;9.212;2023-12-20T11:47:07;52.10;;;33.35;;
70169;SDS011;57543;45.442;9.212;2023-12-20T11:50:17;51.43;;;31.87;;
70169;SDS011;57543;45.442;9.212;2023-12-20T11:53:24;51.97;;;32.58;;
70169;SDS011;57543;45.442;9.212;2023-12-20T11:56:28;49.67;;;30.38;;
70169;SDS011;57543;45.442;9.212;2023-12-20T11:59:40;54.00;;;32.92;;
70169;SDS011;57543;45.442;9.212;2023-12-20T12:02:59;54.55;;;32.90;;
70169;SDS011;57543;45.442;9.212;2023-12-20T12:06:09;55.13;;;33.87;;
70169;SDS011;57543;45.442;9.212;2023-12-20T12:09:12;49.65;;;31.27;;
70169;SDS011;57543;45.442;9.212;2023-12-20T12:12:16;52.10;;;31.73;;
70169;SDS011;57543;45.442;9.212;2023-12-20T12:15:21;48.75;;;32.33;;
70169;SDS011;57543;45.442;9.212;2023-12-20T12:18:25;48.45;;;30.58;;
70169;SDS011;57543;45.442;9.212;2023-12-20T12:21:31;45.60;;;29.73;;
70169;SDS011;57543;45.442;9.212;2023-12-20T12:24:37;46.33;;;30.30;;
70169;SDS011;57543;45.442;9.212;2023-12-20T12:27:42;44.40;;;29.35;;
70169;SDS011;57543;45.442;9.212;2023-12-20T12:30:56;50.30;;;30.90;;
70169;SDS011;57543;45.442;9.212;2023-12-20T12:34:03;46.75;;;29.70;;
70169;SDS011;57543;45.442;9.212;2023-12-20T12:37:07;46.07;;;30.80;;
70169;SDS011;57543;45.442;9.212;2023-12-20T12:40:14;49.25;;;31.83;;
70169;SDS011;57543;45.442;9.212;2023-12-20T12:43:19;51.47;;;31.33;;
70169;SDS011;57543;45.442;9.212;2023-12-20T12:46:22;45.67;;;30.45;;
70169;SDS011;57543;45.442;9.212;2023-12-20T12:49:28;48.25;;;30.52;;
70169;SDS011;57543;45.442;9.212;2023-12-20T12:52:32;47.30;;;31.20;;
70169;SDS011;57543;45.442;9.212;2023-12-20T12:55:36;43.60;;;30.55;;
70169;SDS011;57543;45.442;9.212;2023-12-20T12:58:40;51.28;;;30.23;;
70169;SDS011;57543;45.442;9.212;2023-12-20T13:01:47;44.70;;;29.92;;
70169;SDS011;57543;45.442;9.212;2023-12-20T13:04:51;46.65;;;30.08;;
70169;SDS011;57543;45.442;9.212;2023-12-20T13:07:54;44.80;;;28.93;;
70169;SDS011;57543;45.442;9.212;2023-12-20T13:10:58;55.05;;;30.40;;
70169;SDS011;57543;45.442;9.212;2023-12-20T13:14:04;48.33;;;30.70;;
70169;SDS011;57543;45.442;9.212;2023-12-20T13:17:07;49.35;;;30.70;;
70169;SDS011;57543;45.442;9.212;2023-12-20T13:20:14;43.85;;;28.75;;
70169;SDS011;57543;45.442;9.212;2023-12-20T13:23:17;45.87;;;29.97;;
70169;SDS011;57543;45.442;9.212;2023-12-20T13:26:21;45.58;;;29.90;;
70169;SDS011;57543;45.442;9.212;2023-12-20T13:29:25;42.20;;;29.13;;
70169;SDS011;57543;45.442;9.212;2023-12-20T13:32:33;48.60;;;29.75;;
70169;SDS011;57543;45.442;9.212;2023-12-20T13:35:39;46.72;;;29.73;;
70169;SDS011;57543;45.442;9.212;2023-12-20T13:38:42;45.57;;;29.47;;
70169;SDS011;57543;45.442;9.212;2023-12-20T13:41:46;42.65;;;28.67;;
70169;SDS011;57543;45.442;9.212;2023-12-20T13:44:53;44.38;;;29.50;;
70169;SDS011;57543;45.442;9.212;2023-12-20T13:47:57;42.97;;;29.05;;
70169;SDS011;57543;45.442;9.212;2023-12-20T13:51:08;40.15;;;28.67;;
70169;SDS011;57543;45.442;9.212;2023-12-20T13:54:11;48.73;;;30.90;;
70169;SDS011;57543;45.442;9.212;2023-12-20T13:57:16;47.03;;;30.13;;
70169;SDS011;57543;45.442;9.212;2023-12-20T14:00:22;44.28;;;29.13;;
70169;SDS011;57543;45.442;9.212;2023-12-20T14:03:26;45.70;;;29.77;;
70169;SDS011;57543;45.442;9.212;2023-12-20T14:06:31;54.17;;;32.88;;
70169;SDS011;57543;45.442;9.212;2023-12-20T14:09:35;51.20;;;31.93;;
70169;SDS011;57543;45.442;9.212;2023-12-20T14:12:45;47.72;;;30.33;;
70169;SDS011;57543;45.442;9.212;2023-12-20T14:15:52;45.85;;;30.90;;
70169;SDS011;57543;45.442;9.212;2023-12-20T14:18:57;49.80;;;31.30;;
70169;SDS011;57543;45.442;9.212;2023-12-20T14:22:02;47.40;;;30.00;;
70169;SDS011;57543;45.442;9.212;2023-12-20T14:25:07;48.43;;;30.03;;
70169;SDS011;57543;45.442;9.212;2023-12-20T14:28:12;47.95;;;30.20;;
70169;SDS011;57543;45.442;9.212;2023-12-20T14:31:20;46.35;;;29.60;;
70169;SDS011;57543;45.442;9.212;2023-12-20T14:34:24;48.08;;;29.33;;
70169;SDS011;57543;45.442;9.212;2023-12-20T14:37:28;45.70;;;29.08;;
70169;SDS011;57543;45.442;9.212;2023-12-20T14:40:31;47.03;;;30.23;;
70169;SDS011;57543;45.442;9.212;2023-12-20T14:43:35;43.03;;;29.35;;
70169;SDS011;57543;45.442;9.212;2023-12-20T14:46:41;49.70;;;30.73;;
70169;SDS011;57543;45.442;9.212;2023-12-20T14:49:44;47.22;;;29.83;;
70169;SDS011;57543;45.442;9.212;2023-12-20T14:52:48;44.67;;;29.80;;
70169;SDS011;57543;45.442;9.212;2023-12-20T14:55:52;46.07;;;30.87;;
70169;SDS011;57543;45.442;9.212;2023-12-20T14:58:56;45.85;;;30.77;;
70169;SDS011;57543;45.442;9.212;2023-12-20T15:02:00;45.30;;;29.30;;
70169;SDS011;57543;45.442;9.212;2023-12-20T15:05:05;43.05;;;28.92;;
70169;SDS011;57543;45.442;9.212;2023-12-20T15:08:09;44.88;;;28.80;;
70169;SDS011;57543;45.442;9.212;2023-12-20T15:11:14;46.93;;;30.10;;
70169;SDS011;57543;45.442;9.212;2023-12-20T15:14:20;48.78;;;28.80;;
70169;SDS011;57543;45.442;9.212;2023-12-20T15:17:24;49.00;;;30.00;;
70169;SDS011;57543;45.442;9.212;2023-12-20T15:20:29;48.50;;;30.08;;
70169;SDS011;57543;45.442;9.212;2023-12-20T15:23:35;47.95;;;29.58;;
70169;SDS011;57543;45.442;9.212;2023-12-20T15:26:39;49.43;;;28.00;;
70169;SDS011;57543;45.442;9.212;2023-12-20T15:29:47;49.85;;;29.25;;
70169;SDS011;57543;45.442;9.212;2023-12-20T15:32:53;48.33;;;30.27;;
70169;SDS011;57543;45.442;9.212;2023-12-20T15:36:03;50.10;;;29.15;;
70169;SDS011;57543;45.442;9.212;2023-12-20T15:39:08;47.47;;;30.35;;
70169;SDS011;57543;45.442;9.212;2023-12-20T15:42:19;48.93;;;29.37;;
70169;SDS011;57543;45.442;9.212;2023-12-20T15:45:23;50.13;;;28.70;;
70169;SDS011;57543;45.442;9.212;2023-12-20T15:48:27;46.25;;;28.20;;
70169;SDS011;57543;45.442;9.212;2023-12-20T15:51:33;51.50;;;30.38;;
70169;SDS011;57543;45.442;9.212;2023-12-20T15:54:38;48.25;;;29.90;;
70169;SDS011;57543;45.442;9.212;2023-12-20T15:57:42;46.23;;;30.03;;
70169;SDS011;57543;45.442;9.212;2023-12-20T16:00:46;47.85;;;29.50;;
70169;SDS011;57543;45.442;9.212;2023-12-20T16:03:50;50.45;;;31.23;;
70169;SDS011;57543;45.442;9.212;2023-12-20T16:06:53;51.05;;;29.90;;
70169;SDS011;57543;45.442;9.212;2023-12-20T16:09:56;54.20;;;31.02;;
70169;SDS011;57543;45.442;9.212;2023-12-20T16:13:00;49.07;;;29.23;;
70169;SDS011;57543;45.442;9.212;2023-12-20T16:16:04;53.47;;;30.85;;
70169;SDS011;57543;45.442;9.212;2023-12-20T16:19:07;48.92;;;28.10;;
70169;SDS011;57543;45.442;9.212;2023-12-20T16:22:11;50.08;;;29.70;;
70169;SDS011;57543;45.442;9.212;2023-12-20T16:25:15;52.15;;;31.23;;
70169;SDS011;57543;45.442;9.212;2023-12-20T16:28:18;53.50;;;29.73;;
70169;SDS011;57543;45.442;9.212;2023-12-20T16:31:24;53.03;;;29.15;;
70169;SDS011;57543;45.442;9.212;2023-12-20T16:34:27;51.03;;;30.45;;
70169;SDS011;57543;45.442;9.212;2023-12-20T16:37:33;48.40;;;29.17;;
70169;SDS011;57543;45.442;9.212;2023-12-20T16:40:40;51.70;;;30.50;;
70169;SDS011;57543;45.442;9.212;2023-12-20T16:43:44;51.63;;;30.13;;
70169;SDS011;57543;45.442;9.212;2023-12-20T16:46:49;52.42;;;29.45;;
70169;SDS011;57543;45.442;9.212;2023-12-20T16:50:02;49.85;;;29.52;;
70169;SDS011;57543;45.442;9.212;2023-12-20T16:53:09;56.33;;;30.67;;
70169;SDS011;57543;45.442;9.212;2023-12-20T16:56:13;55.85;;;31.48;;
70169;SDS011;57543;45.442;9.212;2023-12-20T16:59:16;52.93;;;30.90;;
70169;SDS011;57543;45.442;9.212;2023-12-20T17:02:20;51.10;;;30.63;;
70169;SDS011;57543;45.442;9.212;2023-12-20T17:05:23;52.80;;;31.10;;
70169;SDS011;57543;45.442;9.212;2023-12-20T17:08:29;50.22;;;31.15;;
70169;SDS011;57543;45.442;9.212;2023-12-20T17:11:33;52.28;;;31.38;;
70169;SDS011;57543;45.442;9.212;2023-12-20T17:14:37;55.53;;;32.30;;
70169;SDS011;57543;45.442;9.212;2023-12-20T17:17:41;51.65;;;30.98;;
70169;SDS011;57543;45.442;9.212;2023-12-20T17:20:44;58.28;;;33.13;;
70169;SDS011;57543;45.442;9.212;2023-12-20T17:23:48;53.38;;;32.30;;
70169;SDS011;57543;45.442;9.212;2023-12-20T17:26:51;58.97;;;36.30;;
70169;SDS011;57543;45.442;9.212;2023-12-20T17:29:55;66.90;;;39.83;;
70169;SDS011;57543;45.442;9.212;2023-12-20T17:32:58;62.45;;;37.15;;
70169;SDS011;57543;45.442;9.212;2023-12-20T17:36:02;63.80;;;37.90;;
70169;SDS011;57543;45.442;9.212;2023-12-20T17:39:06;70.28;;;38.33;;
70169;SDS011;57543;45.442;9.212;2023-12-20T17:42:09;66.60;;;39.03;;
70169;SDS011;57543;45.442;9.212;2023-12-20T17:45:12;67.20;;;38.80;;
70169;SDS011;57543;45.442;9.212;2023-12-20T17:48:18;63.47;;;38.58;;
70169;SDS011;57543;45.442;9.212;2023-12-20T17:51:23;68.22;;;37.78;;
70169;SDS011;57543;45.442;9.212;2023-12-20T17:54:27;58.80;;;34.22;;
70169;SDS011;57543;45.442;9.212;2023-12-20T17:57:33;59.13;;;35.53;;
70169;SDS011;57543;45.442;9.212;2023-12-20T18:00:39;57.37;;;35.80;;
70169;SDS011;57543;45.442;9.212;2023-12-20T18:03:46;61.80;;;34.67;;
70169;SDS011;57543;45.442;9.212;2023-12-20T18:06:49;59.15;;;34.92;;
70169;SDS011;57543;45.442;9.212;2023-12-20T18:09:56;59.80;;;35.00;;
70169;SDS011;57543;45.442;9.212;2023-12-20T18:13:00;59.15;;;33.17;;